createdAt,value
2022-09-30T00:01:42.943Z,29.20
2022-09-30T00:04:15.873Z,29.50
2022-09-30T00:06:42.921Z,28.70
2022-09-30T00:09:11.353Z,26.90
2022-09-30T00:11:39.238Z,28.48
2022-09-30T00:14:07.824Z,29.65
2022-09-30T00:16:37.067Z,28.02
2022-09-30T00:19:05.402Z,30.10
2022-09-30T00:21:33.905Z,30.90
2022-09-30T00:24:01.661Z,29.60
2022-09-30T00:26:28.311Z,29.98
2022-09-30T00:28:59.827Z,29.75
2022-09-30T00:31:29.849Z,29.25
2022-09-30T00:34:09.050Z,30.50
2022-09-30T00:36:51.033Z,28.75
2022-09-30T00:39:23.661Z,29.55
2022-09-30T00:41:54.097Z,28.77
2022-09-30T00:44:50.568Z,27.92
2022-09-30T00:47:45.279Z,27.95
2022-09-30T00:50:17.949Z,27.70
2022-09-30T00:52:46.440Z,28.30
2022-09-30T00:55:57.230Z,28.85
2022-09-30T00:58:29.911Z,29.13
2022-09-30T01:00:59.909Z,27.67
2022-09-30T01:03:28.979Z,28.33
2022-09-30T01:05:55.863Z,30.58
2022-09-30T01:08:24.062Z,29.42
2022-09-30T01:10:50.768Z,31.17
2022-09-30T01:13:18.667Z,30.30
2022-09-30T01:16:26.781Z,29.20
2022-09-30T01:19:11.933Z,30.08
2022-09-30T01:22:09.531Z,30.65
2022-09-30T01:25:07.010Z,30.85
2022-09-30T01:28:00.144Z,30.92
2022-09-30T01:31:00.050Z,29.85
2022-09-30T01:33:50.415Z,27.48
2022-09-30T01:36:25.610Z,29.48
2022-09-30T01:39:36.548Z,29.38
2022-09-30T01:42:13.377Z,28.00
2022-09-30T01:44:52.089Z,27.15
2022-09-30T01:47:25.373Z,28.73
2022-09-30T01:50:01.434Z,29.50
2022-09-30T01:52:43.264Z,28.27
2022-09-30T01:55:27.788Z,30.38
2022-09-30T01:58:21.266Z,29.27
2022-09-30T02:00:52.656Z,28.38
2022-09-30T02:03:31.343Z,29.33
2022-09-30T02:06:21.186Z,29.00
2022-09-30T02:08:55.231Z,28.70
2022-09-30T02:11:26.419Z,28.25
2022-09-30T02:14:06.121Z,26.88
2022-09-30T02:16:42.066Z,28.25
2022-09-30T02:19:39.346Z,27.30
2022-09-30T02:22:47.859Z,26.27
2022-09-30T02:25:20.282Z,28.33
2022-09-30T02:27:55.190Z,27.23
2022-09-30T02:30:22.133Z,28.48
2022-09-30T02:33:03.307Z,31.17
2022-09-30T02:35:58.131Z,31.58
2022-09-30T02:38:29.454Z,31.38
2022-09-30T02:41:04.719Z,31.80
2022-09-30T02:43:31.996Z,30.77
2022-09-30T02:46:18.125Z,31.58
2022-09-30T02:48:54.123Z,31.92
2022-09-30T02:51:49.992Z,30.80
2022-09-30T02:54:41.019Z,31.83
2022-09-30T02:57:22.230Z,33.67
2022-09-30T02:59:52.607Z,33.38
2022-09-30T03:02:20.667Z,32.28
2022-09-30T03:04:49.877Z,34.03
2022-09-30T03:07:16.755Z,33.28
2022-09-30T03:09:44.092Z,34.25
2022-09-30T03:12:27.405Z,33.38
2022-09-30T03:15:12.379Z,32.38
2022-09-30T03:17:57.986Z,33.45
2022-09-30T03:20:43.585Z,32.92
2022-09-30T03:23:41.405Z,35.20
2022-09-30T03:26:47.268Z,32.75
2022-09-30T03:29:24.077Z,32.92
2022-09-30T03:31:56.609Z,33.97
2022-09-30T03:34:37.645Z,32.67
2022-09-30T03:37:30.493Z,33.35
2022-09-30T03:39:59.512Z,33.67
2022-09-30T03:42:37.313Z,33.03
2022-09-30T03:45:20.174Z,32.80
2022-09-30T03:47:53.803Z,33.80
2022-09-30T03:50:23.253Z,35.20
2022-09-30T03:52:50.149Z,34.63
2022-09-30T03:55:19.493Z,36.70
2022-09-30T03:57:46.205Z,35.72
2022-09-30T04:00:13.812Z,38.47
2022-09-30T04:02:40.612Z,39.53
2022-09-30T04:05:08.523Z,38.33
2022-09-30T04:07:35.525Z,38.95
2022-09-30T04:10:02.315Z,39.15
2022-09-30T04:12:28.993Z,40.47
2022-09-30T04:14:55.739Z,40.38
2022-09-30T04:17:22.877Z,39.35
2022-09-30T04:19:49.915Z,39.25
2022-09-30T04:22:16.616Z,42.67
2022-09-30T04:24:43.890Z,43.60
2022-09-30T04:27:10.629Z,40.00
2022-09-30T04:29:37.302Z,41.45
2022-09-30T04:32:03.994Z,40.90
2022-09-30T04:34:31.100Z,39.65
2022-09-30T04:36:57.791Z,42.83
2022-09-30T04:39:24.467Z,41.80
2022-09-30T04:41:53.772Z,41.42
2022-09-30T04:44:21.356Z,38.58
2022-09-30T04:46:48.571Z,39.58
2022-09-30T04:49:15.225Z,37.08
2022-09-30T04:51:45.908Z,37.50
2022-09-30T04:54:13.360Z,40.28
2022-09-30T04:56:40.137Z,41.05
2022-09-30T04:59:07.013Z,42.33
2022-09-30T05:01:34.054Z,42.13
2022-09-30T05:04:00.886Z,40.72
2022-09-30T05:06:27.654Z,42.15
2022-09-30T05:08:54.527Z,41.80
2022-09-30T05:11:22.248Z,38.08
2022-09-30T05:13:50.841Z,43.05
2022-09-30T05:16:18.324Z,45.45
2022-09-30T05:18:46.302Z,43.72
2022-09-30T05:21:15.069Z,44.95
2022-09-30T05:23:41.786Z,43.63
2022-09-30T05:26:12.247Z,45.95
2022-09-30T05:28:40.822Z,40.28
2022-09-30T05:31:08.164Z,42.60
2022-09-30T05:33:35.944Z,42.70
2022-09-30T05:36:05.753Z,44.53
2022-09-30T05:38:32.727Z,46.65
2022-09-30T05:41:06.396Z,45.28
2022-09-30T05:43:33.257Z,46.05
2022-09-30T05:45:59.943Z,44.53
2022-09-30T05:48:26.618Z,42.83
2022-09-30T05:50:58.007Z,41.15
2022-09-30T05:53:25.850Z,40.50
2022-09-30T05:55:52.762Z,41.38
2022-09-30T05:58:20.301Z,41.65
2022-09-30T06:00:48.654Z,40.90
2022-09-30T06:03:15.975Z,45.15
2022-09-30T06:05:42.901Z,43.13
2022-09-30T06:08:10.304Z,44.10
2022-09-30T06:10:39.902Z,45.40
2022-09-30T06:13:07.441Z,51.63
2022-09-30T06:15:34.125Z,52.70
2022-09-30T06:18:00.858Z,49.28
2022-09-30T06:20:27.544Z,47.95
2022-09-30T06:22:54.651Z,47.30
2022-09-30T06:25:22.230Z,47.78
2022-09-30T06:27:50.134Z,44.60
2022-09-30T06:30:16.947Z,42.30
2022-09-30T06:32:43.888Z,45.50
2022-09-30T06:35:10.894Z,46.55
2022-09-30T06:37:38.579Z,46.85
2022-09-30T06:40:08.991Z,47.85
2022-09-30T06:42:35.963Z,48.60
2022-09-30T06:45:02.635Z,49.63
2022-09-30T06:47:29.343Z,50.83
2022-09-30T06:49:58.961Z,52.47
2022-09-30T06:52:26.704Z,51.88
2022-09-30T06:54:56.418Z,52.17
2022-09-30T06:57:24.930Z,49.10
2022-09-30T06:59:52.088Z,50.30
2022-09-30T07:02:19.121Z,49.47
2022-09-30T07:04:46.233Z,61.63
2022-09-30T07:07:12.938Z,56.60
2022-09-30T07:09:39.795Z,57.42
2022-09-30T07:12:07.424Z,58.17
2022-09-30T07:14:35.844Z,56.80
2022-09-30T07:17:04.077Z,59.10
2022-09-30T07:19:31.482Z,56.20
2022-09-30T07:22:18.377Z,57.03
2022-09-30T07:24:45.043Z,57.90
2022-09-30T07:27:13.443Z,55.33
2022-09-30T07:30:04.322Z,57.10
2022-09-30T07:32:28.296Z,56.08
2022-09-30T07:34:55.014Z,52.40
2022-09-30T07:37:21.954Z,55.72
2022-09-30T07:39:49.113Z,54.72
2022-09-30T07:42:22.536Z,50.90
2022-09-30T07:44:51.889Z,47.45
2022-09-30T07:47:20.146Z,42.95
2022-09-30T07:49:47.226Z,35.97
2022-09-30T07:52:14.446Z,33.75
2022-09-30T07:54:46.679Z,29.00
2022-09-30T07:57:15.299Z,28.53
2022-09-30T07:59:42.303Z,27.08
2022-09-30T08:02:14.188Z,31.58
2022-09-30T08:04:43.979Z,28.98
2022-09-30T08:07:13.479Z,33.78
2022-09-30T08:09:40.593Z,33.15
2022-09-30T08:12:07.508Z,34.70
2022-09-30T08:14:34.747Z,35.70
2022-09-30T08:17:01.483Z,32.50
2022-09-30T08:19:29.926Z,32.88
2022-09-30T08:21:57.771Z,31.95
2022-09-30T08:24:26.428Z,30.98
2022-09-30T08:26:53.751Z,29.25
2022-09-30T08:29:42.420Z,30.83
2022-09-30T08:32:07.799Z,29.60
2022-09-30T08:34:35.392Z,28.25
2022-09-30T08:37:07.859Z,29.83
2022-09-30T08:39:35.303Z,28.85
2022-09-30T08:42:36.048Z,30.58
2022-09-30T08:45:42.622Z,29.00
2022-09-30T08:48:26.714Z,29.05
2022-09-30T08:51:31.230Z,27.52
2022-09-30T08:54:00.314Z,27.58
2022-09-30T08:56:32.019Z,29.95
2022-09-30T08:59:34.238Z,28.98
2022-09-30T09:02:21.859Z,27.60
2022-09-30T09:04:52.448Z,27.30
2022-09-30T09:07:48.854Z,25.88
2022-09-30T09:10:48.274Z,26.00
2022-09-30T09:13:44.389Z,26.13
2022-09-30T09:16:10.945Z,27.70
2022-09-30T09:18:44.921Z,28.08
2022-09-30T09:21:29.295Z,28.00
2022-09-30T09:24:00.369Z,29.48
2022-09-30T09:26:30.643Z,29.23
2022-09-30T09:29:22.876Z,28.92
2022-09-30T09:31:49.633Z,27.55
2022-09-30T09:34:16.340Z,27.27
2022-09-30T09:36:45.723Z,27.63
2022-09-30T09:39:38.724Z,28.48
2022-09-30T09:42:26.648Z,27.55
2022-09-30T09:45:09.117Z,28.52
2022-09-30T09:47:35.799Z,27.65
2022-09-30T09:50:04.627Z,27.13
2022-09-30T09:52:34.143Z,27.40
2022-09-30T09:55:00.786Z,28.15
2022-09-30T09:57:32.102Z,27.98
2022-09-30T10:00:27.434Z,27.42
2022-09-30T10:03:20.060Z,27.52
2022-09-30T10:06:06.450Z,28.90
2022-09-30T10:08:39.536Z,28.92
2022-09-30T10:11:17.783Z,29.27
2022-09-30T10:13:45.667Z,29.13
2022-09-30T10:16:37.919Z,29.40
2022-09-30T10:19:18.388Z,29.85
2022-09-30T10:21:45.399Z,29.33
2022-09-30T10:24:31.700Z,28.45
2022-09-30T10:26:58.313Z,29.35
2022-09-30T10:29:34.295Z,29.60
2022-09-30T10:32:06.288Z,28.45
2022-09-30T10:34:35.923Z,27.52
2022-09-30T10:37:09.582Z,29.63
2022-09-30T10:39:39.246Z,28.80
2022-09-30T10:42:21.207Z,30.35
2022-09-30T10:45:02.026Z,30.10
2022-09-30T10:47:36.425Z,32.05
2022-09-30T10:50:10.664Z,31.02
2022-09-30T10:53:05.769Z,31.88
2022-09-30T10:55:35.161Z,30.70
2022-09-30T10:58:21.218Z,34.28
2022-09-30T11:00:51.866Z,32.53
2022-09-30T11:03:24.490Z,30.42
2022-09-30T11:05:51.147Z,28.95
2022-09-30T11:08:41.237Z,30.38
2022-09-30T11:11:14.059Z,29.75
2022-09-30T11:13:57.106Z,28.15
2022-09-30T11:16:42.381Z,28.52
2022-09-30T11:19:22.327Z,27.33
2022-09-30T11:21:48.915Z,27.75
2022-09-30T11:24:28.186Z,29.25
2022-09-30T11:27:02.635Z,29.63
2022-09-30T11:30:00.999Z,27.30
2022-09-30T11:32:49.503Z,29.35
2022-09-30T11:35:37.478Z,26.95
2022-09-30T11:38:22.512Z,28.48
2022-09-30T11:41:07.997Z,26.10
2022-09-30T11:43:57.370Z,26.98
2022-09-30T11:46:35.908Z,26.10
2022-09-30T11:49:43.588Z,25.75
2022-09-30T11:52:23.694Z,26.38
2022-09-30T11:54:53.112Z,24.25
2022-09-30T11:57:32.135Z,26.45
2022-09-30T12:00:07.790Z,27.48
2022-09-30T12:02:49.625Z,28.08
2022-09-30T12:05:27.694Z,27.45
2022-09-30T12:08:09.171Z,26.35
2022-09-30T12:10:55.876Z,27.95
2022-09-30T12:13:36.393Z,25.67
2022-09-30T12:16:07.559Z,27.58
2022-09-30T12:18:39.945Z,27.23
2022-09-30T12:21:21.793Z,27.38
2022-09-30T12:23:58.432Z,26.48
2022-09-30T12:26:25.346Z,26.13
2022-09-30T12:29:20.522Z,27.02
2022-09-30T12:32:09.036Z,26.27
2022-09-30T12:34:50.898Z,26.88
2022-09-30T12:37:17.447Z,26.48
2022-09-30T12:39:47.038Z,25.60
2022-09-30T12:42:33.129Z,25.85
2022-09-30T12:45:36.744Z,26.15
2022-09-30T12:48:20.757Z,25.50
2022-09-30T12:50:52.936Z,23.75
2022-09-30T12:53:27.573Z,24.85
2022-09-30T12:55:55.783Z,24.83
2022-09-30T12:58:30.709Z,24.15
2022-09-30T13:01:22.350Z,25.35
2022-09-30T13:03:57.101Z,24.55
2022-09-30T13:06:23.862Z,25.40
2022-09-30T13:09:05.712Z,23.67
2022-09-30T13:11:54.464Z,24.25
2022-09-30T13:14:34.975Z,24.20
2022-09-30T13:17:07.658Z,23.50
2022-09-30T13:19:40.160Z,25.10
2022-09-30T13:22:18.979Z,24.42
2022-09-30T13:24:57.934Z,24.70
2022-09-30T13:27:37.824Z,24.30
2022-09-30T13:30:13.388Z,23.67
2022-09-30T13:32:42.496Z,25.10
2022-09-30T13:35:32.695Z,25.42
2022-09-30T13:38:14.418Z,26.27
2022-09-30T13:41:03.302Z,25.77
2022-09-30T13:43:51.938Z,23.80
2022-09-30T13:46:46.963Z,25.05
2022-09-30T13:49:44.478Z,23.77
2022-09-30T13:52:38.137Z,23.80
2022-09-30T13:55:22.381Z,24.95
2022-09-30T13:58:07.046Z,24.88
2022-09-30T14:00:57.030Z,23.23
2022-09-30T14:04:16.989Z,23.63
2022-09-30T14:06:45.311Z,23.85
2022-09-30T14:09:50.897Z,24.08
2022-09-30T14:12:32.657Z,23.90
2022-09-30T14:15:02.980Z,23.08
2022-09-30T14:17:59.665Z,22.85
2022-09-30T14:20:53.826Z,23.70
2022-09-30T14:23:21.183Z,25.33
2022-09-30T14:26:14.839Z,23.08
2022-09-30T14:28:57.324Z,23.08
2022-09-30T14:31:24.839Z,23.50
2022-09-30T14:33:52.036Z,21.42
2022-09-30T14:36:22.275Z,22.35
2022-09-30T14:38:57.300Z,22.98
2022-09-30T14:43:55.227Z,23.85
2022-09-30T14:46:38.757Z,23.55
2022-09-30T14:49:09.778Z,22.95
2022-09-30T14:51:43.435Z,22.60
2022-09-30T14:54:21.859Z,22.58
2022-09-30T14:56:49.640Z,22.15
2022-09-30T14:59:19.349Z,22.80
2022-09-30T15:01:50.050Z,23.30
2022-09-30T15:04:21.956Z,23.77
2022-09-30T15:06:53.091Z,22.42
2022-09-30T15:09:25.209Z,23.60
2022-09-30T15:11:51.878Z,24.45
2022-09-30T15:14:20.589Z,24.55
2022-09-30T15:16:56.171Z,23.55
2022-09-30T15:19:34.338Z,24.17
2022-09-30T15:22:06.969Z,24.08
2022-09-30T15:24:36.282Z,23.42
2022-09-30T15:27:03.956Z,23.15
2022-09-30T15:29:30.583Z,23.30
2022-09-30T15:32:14.489Z,23.13
2022-09-30T15:34:43.432Z,23.25
2022-09-30T15:37:20.994Z,23.45
2022-09-30T15:40:07.230Z,23.30
2022-09-30T15:42:45.468Z,23.23
2022-09-30T15:45:18.479Z,23.50
2022-09-30T15:47:57.911Z,23.88
2022-09-30T15:50:35.290Z,22.77
2022-09-30T15:53:25.499Z,23.27
2022-09-30T15:56:00.044Z,23.80
2022-09-30T15:58:26.695Z,24.17
2022-09-30T16:01:14.742Z,25.27
2022-09-30T16:04:01.447Z,25.13
2022-09-30T16:06:36.634Z,25.33
2022-09-30T16:09:08.568Z,27.10
2022-09-30T16:11:41.106Z,26.88
2022-09-30T16:14:22.399Z,27.00
2022-09-30T16:16:55.202Z,26.33
2022-09-30T16:19:24.338Z,26.10
2022-09-30T16:21:52.404Z,26.98
2022-09-30T16:24:28.760Z,26.77
2022-09-30T16:26:57.373Z,26.27
2022-09-30T16:29:25.829Z,25.10
2022-09-30T16:31:55.315Z,23.77
2022-09-30T16:34:27.756Z,30.98
2022-09-30T16:37:03.503Z,25.85
2022-09-30T16:39:30.214Z,26.85
2022-09-30T16:41:57.003Z,27.50
2022-09-30T16:44:24.314Z,28.30
2022-09-30T16:46:51.583Z,26.70
2022-09-30T16:49:19.773Z,27.05
2022-09-30T16:51:46.881Z,25.45
2022-09-30T16:54:13.853Z,29.77
2022-09-30T16:56:40.465Z,25.50
2022-09-30T16:59:13.709Z,21.50
2022-09-30T17:01:40.897Z,21.05
2022-09-30T17:04:08.916Z,21.42
2022-09-30T17:06:36.904Z,30.75
2022-09-30T17:09:04.894Z,58.88
2022-09-30T17:11:33.691Z,40.65
2022-09-30T17:14:01.195Z,36.70
2022-09-30T17:16:27.994Z,52.58
2022-09-30T17:18:54.927Z,26.38
2022-09-30T17:21:24.091Z,31.05
2022-09-30T17:23:51.166Z,30.70
2022-09-30T17:26:18.489Z,26.75
2022-09-30T17:28:46.092Z,28.52
2022-09-30T17:31:57.493Z,23.30
2022-09-30T17:34:26.486Z,23.35
2022-09-30T17:36:54.239Z,23.67
2022-09-30T17:39:20.952Z,24.58
2022-09-30T17:42:05.988Z,25.08
2022-09-30T17:44:33.067Z,24.83
2022-09-30T17:47:00.399Z,24.60
2022-09-30T17:49:35.589Z,26.30
2022-09-30T17:52:03.546Z,32.05
2022-09-30T17:54:31.440Z,22.88
2022-09-30T17:56:58.476Z,23.63
2022-09-30T17:59:26.834Z,22.48
2022-09-30T18:01:56.179Z,21.80
2022-09-30T18:04:25.807Z,22.52
2022-09-30T18:06:54.033Z,24.10
2022-09-30T18:09:20.869Z,31.15
2022-09-30T18:11:47.514Z,24.30
2022-09-30T18:14:14.501Z,24.75
2022-09-30T18:16:41.182Z,27.25
2022-09-30T18:19:08.573Z,25.15
2022-09-30T18:21:37.167Z,23.27
2022-09-30T18:24:05.842Z,23.77
2022-09-30T18:26:35.647Z,20.90
2022-09-30T18:29:03.239Z,19.67
2022-09-30T18:31:34.467Z,17.20
2022-09-30T18:34:01.988Z,16.55
2022-09-30T18:36:29.552Z,15.98
2022-09-30T18:38:59.133Z,16.25
2022-09-30T18:41:27.178Z,18.33
2022-09-30T18:43:59.345Z,20.65
2022-09-30T18:46:27.671Z,17.30
2022-09-30T18:48:54.560Z,17.30
2022-09-30T18:51:23.144Z,16.95
2022-09-30T18:53:58.253Z,17.63
2022-09-30T18:56:26.996Z,17.23
2022-09-30T18:58:53.796Z,17.00
2022-09-30T19:01:21.270Z,18.33
2022-09-30T19:03:48.039Z,16.55
2022-09-30T19:06:15.062Z,16.50
2022-09-30T19:08:43.366Z,18.33
2022-09-30T19:11:15.589Z,19.63
2022-09-30T19:13:44.145Z,19.63
2022-09-30T19:16:11.788Z,21.25
2022-09-30T19:18:40.858Z,20.90
2022-09-30T19:21:10.059Z,25.08
2022-09-30T19:23:37.331Z,20.83
2022-09-30T19:26:07.760Z,19.95
2022-09-30T19:28:38.066Z,20.02
2022-09-30T19:31:10.240Z,19.80
2022-09-30T19:33:40.058Z,18.77
2022-09-30T19:36:14.852Z,19.65
2022-09-30T19:38:45.113Z,20.13
2022-09-30T19:41:15.373Z,23.73
2022-09-30T19:43:49.406Z,20.05
2022-09-30T19:46:16.583Z,19.83
2022-09-30T19:48:43.939Z,18.30
2022-09-30T19:51:17.077Z,20.70
2022-09-30T19:54:00.146Z,27.10
2022-09-30T19:56:32.661Z,18.88
2022-09-30T19:59:00.227Z,16.70
2022-09-30T20:01:28.406Z,15.38
2022-09-30T20:03:56.961Z,14.93
2022-09-30T20:06:24.030Z,14.85
2022-09-30T20:08:53.059Z,14.93
2022-09-30T20:11:21.723Z,15.30
2022-09-30T20:14:12.960Z,14.00
2022-09-30T20:16:41.013Z,14.77
2022-09-30T20:19:08.144Z,14.70
2022-09-30T20:21:35.234Z,15.05
2022-09-30T20:24:02.370Z,14.13
2022-09-30T20:26:29.154Z,14.93
2022-09-30T20:28:57.724Z,14.02
2022-09-30T20:31:25.361Z,13.95
2022-09-30T20:34:00.006Z,13.98
2022-09-30T20:36:28.979Z,14.15
2022-09-30T20:39:00.238Z,14.77
2022-09-30T20:41:28.179Z,13.35
2022-09-30T20:43:54.934Z,15.23
2022-09-30T20:46:23.073Z,14.57
2022-09-30T20:48:49.951Z,14.50
2022-09-30T20:51:20.744Z,14.80
2022-09-30T20:53:53.115Z,15.23
2022-09-30T20:56:21.518Z,14.70
2022-09-30T20:58:49.132Z,14.60
2022-09-30T21:01:20.629Z,15.18
2022-09-30T21:03:52.370Z,15.00
2022-09-30T21:06:25.844Z,14.65
2022-09-30T21:08:53.446Z,14.55
2022-09-30T21:11:22.220Z,14.15
2022-09-30T21:13:50.930Z,14.52
2022-09-30T21:16:20.728Z,14.55
2022-09-30T21:18:49.797Z,14.85
2022-09-30T21:21:18.244Z,14.32
2022-09-30T21:23:45.121Z,14.75
2022-09-30T21:26:14.513Z,14.27
2022-09-30T21:28:45.505Z,15.65
2022-09-30T21:31:21.127Z,15.68
2022-09-30T21:33:58.161Z,15.63
2022-09-30T21:36:26.029Z,16.10
2022-09-30T21:38:53.379Z,16.70
2022-09-30T21:41:20.441Z,16.17
2022-09-30T21:43:47.374Z,14.60
2022-09-30T21:46:15.563Z,15.90
2022-09-30T21:48:42.487Z,15.32
2022-09-30T21:51:09.884Z,15.75
2022-09-30T21:53:36.734Z,16.77
2022-09-30T21:56:04.293Z,15.95
2022-09-30T21:58:32.560Z,15.85
2022-09-30T22:01:02.775Z,16.05
2022-09-30T22:03:31.508Z,15.48
2022-09-30T22:05:58.959Z,15.82
2022-09-30T22:08:26.329Z,15.27
2022-09-30T22:10:53.163Z,15.43
2022-09-30T22:13:19.823Z,14.77
2022-09-30T22:15:47.095Z,15.15
2022-09-30T22:18:18.839Z,15.00
2022-09-30T22:20:47.040Z,15.50
2022-09-30T22:23:14.865Z,15.45
2022-09-30T22:25:41.604Z,15.32
2022-09-30T22:28:08.345Z,14.82
2022-09-30T22:30:35.239Z,15.85
2022-09-30T22:33:20.981Z,15.95
2022-09-30T22:36:06.139Z,16.00
2022-09-30T22:38:32.749Z,16.58
2022-09-30T22:40:59.512Z,15.90
2022-09-30T22:43:27.068Z,14.98
2022-09-30T22:46:05.341Z,15.18
2022-09-30T22:48:32.605Z,15.55
2022-09-30T22:50:59.889Z,15.27
2022-09-30T22:53:27.968Z,16.17
2022-09-30T22:55:55.093Z,15.05
2022-09-30T22:58:26.034Z,14.77
2022-09-30T23:00:57.517Z,14.52
2022-09-30T23:03:25.415Z,13.90
2022-09-30T23:05:53.203Z,14.77
2022-09-30T23:08:19.844Z,15.00
2022-09-30T23:10:51.266Z,14.77
2022-09-30T23:13:22.247Z,15.05
2022-09-30T23:15:48.849Z,14.60
2022-09-30T23:18:17.008Z,15.48
2022-09-30T23:20:53.617Z,17.15
2022-09-30T23:23:20.256Z,16.20
2022-09-30T23:25:46.929Z,15.90
2022-09-30T23:28:13.729Z,16.25
2022-09-30T23:30:40.749Z,15.85
2022-09-30T23:33:09.935Z,15.20
2022-09-30T23:35:36.544Z,15.35
2022-09-30T23:38:03.133Z,15.68
2022-09-30T23:40:31.371Z,16.45
2022-09-30T23:42:57.957Z,15.65
2022-09-30T23:45:24.705Z,15.80
2022-09-30T23:47:51.417Z,15.52
2022-09-30T23:50:18.077Z,15.90
2022-09-30T23:52:44.766Z,16.85
2022-09-30T23:55:11.531Z,16.88
2022-09-30T23:57:38.288Z,16.55
